sensor_id;sensor_type;location;lat;lon;timestamp;P1;durP1;ratioP1;P2;durP2;ratioP2
50128;SDS011;36026;45.478;9.224;2023-08-08T00:00:13;0.70;;;0.40;;
50128;SDS011;36026;45.478;9.224;2023-08-08T00:03:15;2.00;;;0.50;;
50128;SDS011;36026;45.478;9.224;2023-08-08T00:06:18;0.50;;;0.40;;
50128;SDS011;36026;45.478;9.224;2023-08-08T00:09:19;1.02;;;0.57;;
50128;SDS011;36026;45.478;9.224;2023-08-08T00:12:21;0.75;;;0.40;;
50128;SDS011;36026;45.478;9.224;2023-08-08T00:15:22;1.20;;;0.65;;
50128;SDS011;36026;45.478;9.224;2023-08-08T00:18:24;1.30;;;0.50;;
50128;SDS011;36026;45.478;9.224;2023-08-08T00:21:26;1.02;;;0.38;;
50128;SDS011;36026;45.478;9.224;2023-08-08T00:24:28;2.30;;;0.60;;
50128;SDS011;36026;45.478;9.224;2023-08-08T00:27:29;3.08;;;0.68;;
50128;SDS011;36026;45.478;9.224;2023-08-08T00:30:31;1.00;;;0.65;;
50128;SDS011;36026;45.478;9.224;2023-08-08T00:33:32;0.80;;;0.40;;
50128;SDS011;36026;45.478;9.224;2023-08-08T00:36:35;0.90;;;0.47;;
50128;SDS011;36026;45.478;9.224;2023-08-08T00:39:36;1.13;;;0.40;;
50128;SDS011;36026;45.478;9.224;2023-08-08T00:42:39;0.82;;;0.50;;
50128;SDS011;36026;45.478;9.224;2023-08-08T00:45:41;1.55;;;0.50;;
50128;SDS011;36026;45.478;9.224;2023-08-08T00:48:43;2.27;;;0.40;;
50128;SDS011;36026;45.478;9.224;2023-08-08T00:51:46;0.93;;;0.40;;
50128;SDS011;36026;45.478;9.224;2023-08-08T00:54:47;1.40;;;0.50;;
50128;SDS011;36026;45.478;9.224;2023-08-08T00:57:49;0.98;;;0.52;;
50128;SDS011;36026;45.478;9.224;2023-08-08T01:00:50;3.88;;;0.73;;
50128;SDS011;36026;45.478;9.224;2023-08-08T01:03:54;2.45;;;0.63;;
50128;SDS011;36026;45.478;9.224;2023-08-08T01:07:00;0.90;;;0.45;;
50128;SDS011;36026;45.478;9.224;2023-08-08T01:10:05;2.03;;;0.47;;
50128;SDS011;36026;45.478;9.224;2023-08-08T01:13:08;0.90;;;0.50;;
50128;SDS011;36026;45.478;9.224;2023-08-08T01:16:10;1.25;;;0.60;;
50128;SDS011;36026;45.478;9.224;2023-08-08T01:19:12;0.70;;;0.50;;
50128;SDS011;36026;45.478;9.224;2023-08-08T01:22:23;0.65;;;0.40;;
50128;SDS011;36026;45.478;9.224;2023-08-08T01:25:27;1.80;;;0.65;;
50128;SDS011;36026;45.478;9.224;2023-08-08T01:28:29;0.85;;;0.55;;
50128;SDS011;36026;45.478;9.224;2023-08-08T01:31:30;1.80;;;0.50;;
50128;SDS011;36026;45.478;9.224;2023-08-08T01:34:32;0.68;;;0.40;;
50128;SDS011;36026;45.478;9.224;2023-08-08T01:37:35;0.98;;;0.50;;
50128;SDS011;36026;45.478;9.224;2023-08-08T01:40:38;0.70;;;0.40;;
50128;SDS011;36026;45.478;9.224;2023-08-08T01:43:41;0.60;;;0.50;;
50128;SDS011;36026;45.478;9.224;2023-08-08T01:46:42;1.50;;;0.70;;
50128;SDS011;36026;45.478;9.224;2023-08-08T01:49:44;0.80;;;0.50;;
50128;SDS011;36026;45.478;9.224;2023-08-08T01:52:45;0.90;;;0.60;;
50128;SDS011;36026;45.478;9.224;2023-08-08T01:55:48;2.13;;;0.60;;
50128;SDS011;36026;45.478;9.224;2023-08-08T01:58:50;1.33;;;0.50;;
50128;SDS011;36026;45.478;9.224;2023-08-08T02:01:51;1.95;;;0.45;;
50128;SDS011;36026;45.478;9.224;2023-08-08T02:04:53;1.08;;;0.50;;
50128;SDS011;36026;45.478;9.224;2023-08-08T02:07:54;1.17;;;0.60;;
50128;SDS011;36026;45.478;9.224;2023-08-08T02:10:57;1.40;;;0.50;;
50128;SDS011;36026;45.478;9.224;2023-08-08T02:13:58;1.13;;;0.60;;
50128;SDS011;36026;45.478;9.224;2023-08-08T02:17:00;2.88;;;0.70;;
50128;SDS011;36026;45.478;9.224;2023-08-08T02:20:01;2.70;;;0.47;;
50128;SDS011;36026;45.478;9.224;2023-08-08T02:23:03;2.65;;;0.70;;
50128;SDS011;36026;45.478;9.224;2023-08-08T02:26:06;2.53;;;0.60;;
50128;SDS011;36026;45.478;9.224;2023-08-08T02:29:08;1.75;;;0.60;;
50128;SDS011;36026;45.478;9.224;2023-08-08T02:32:09;1.67;;;0.50;;
50128;SDS011;36026;45.478;9.224;2023-08-08T02:35:11;3.10;;;0.57;;
50128;SDS011;36026;45.478;9.224;2023-08-08T02:38:12;1.50;;;0.40;;
50128;SDS011;36026;45.478;9.224;2023-08-08T02:41:15;2.30;;;0.60;;
50128;SDS011;36026;45.478;9.224;2023-08-08T02:44:17;0.93;;;0.40;;
50128;SDS011;36026;45.478;9.224;2023-08-08T02:47:19;1.45;;;0.40;;
50128;SDS011;36026;45.478;9.224;2023-08-08T02:50:21;1.58;;;0.50;;
50128;SDS011;36026;45.478;9.224;2023-08-08T02:53:22;2.53;;;0.50;;
50128;SDS011;36026;45.478;9.224;2023-08-08T02:56:25;1.80;;;0.60;;
50128;SDS011;36026;45.478;9.224;2023-08-08T02:59:27;1.67;;;0.70;;
50128;SDS011;36026;45.478;9.224;2023-08-08T03:02:29;2.80;;;0.73;;
50128;SDS011;36026;45.478;9.224;2023-08-08T03:05:30;1.40;;;0.70;;
50128;SDS011;36026;45.478;9.224;2023-08-08T03:08:32;1.52;;;0.60;;
50128;SDS011;36026;45.478;9.224;2023-08-08T03:11:34;2.17;;;0.60;;
50128;SDS011;36026;45.478;9.224;2023-08-08T03:14:37;1.33;;;0.70;;
50128;SDS011;36026;45.478;9.224;2023-08-08T03:17:38;1.77;;;0.70;;
50128;SDS011;36026;45.478;9.224;2023-08-08T03:20:40;1.95;;;0.70;;
50128;SDS011;36026;45.478;9.224;2023-08-08T03:23:41;1.83;;;0.60;;
50128;SDS011;36026;45.478;9.224;2023-08-08T03:26:44;0.90;;;0.60;;
50128;SDS011;36026;45.478;9.224;2023-08-08T03:29:46;0.80;;;0.60;;
50128;SDS011;36026;45.478;9.224;2023-08-08T03:32:47;1.85;;;0.70;;
50128;SDS011;36026;45.478;9.224;2023-08-08T03:35:48;1.02;;;0.60;;
50128;SDS011;36026;45.478;9.224;2023-08-08T03:38:50;1.80;;;0.73;;
50128;SDS011;36026;45.478;9.224;2023-08-08T03:41:53;2.15;;;0.77;;
50128;SDS011;36026;45.478;9.224;2023-08-08T03:44:54;3.20;;;0.90;;
50128;SDS011;36026;45.478;9.224;2023-08-08T03:47:56;2.85;;;0.68;;
50128;SDS011;36026;45.478;9.224;2023-08-08T03:50:57;2.47;;;0.60;;
50128;SDS011;36026;45.478;9.224;2023-08-08T03:53:58;1.83;;;0.68;;
50128;SDS011;36026;45.478;9.224;2023-08-08T03:57:01;2.28;;;0.63;;
50128;SDS011;36026;45.478;9.224;2023-08-08T04:00:03;1.27;;;0.75;;
50128;SDS011;36026;45.478;9.224;2023-08-08T04:06:46;1.40;;;0.93;;
50128;SDS011;36026;45.478;9.224;2023-08-08T04:09:47;1.27;;;0.60;;
50128;SDS011;36026;45.478;9.224;2023-08-08T04:12:50;2.25;;;0.70;;
50128;SDS011;36026;45.478;9.224;2023-08-08T04:15:52;1.00;;;0.60;;
50128;SDS011;36026;45.478;9.224;2023-08-08T04:18:53;2.17;;;0.75;;
50128;SDS011;36026;45.478;9.224;2023-08-08T04:21:55;4.07;;;0.60;;
50128;SDS011;36026;45.478;9.224;2023-08-08T04:24:56;2.17;;;0.85;;
50128;SDS011;36026;45.478;9.224;2023-08-08T04:28:08;1.95;;;0.52;;
50128;SDS011;36026;45.478;9.224;2023-08-08T04:31:09;1.95;;;0.60;;
50128;SDS011;36026;45.478;9.224;2023-08-08T04:34:11;1.02;;;0.40;;
50128;SDS011;36026;45.478;9.224;2023-08-08T04:37:19;0.93;;;0.60;;
50128;SDS011;36026;45.478;9.224;2023-08-08T04:44:15;0.90;;;0.60;;
50128;SDS011;36026;45.478;9.224;2023-08-08T04:47:50;1.27;;;0.60;;
50128;SDS011;36026;45.478;9.224;2023-08-08T04:50:52;1.30;;;0.90;;
50128;SDS011;36026;45.478;9.224;2023-08-08T04:57:39;1.45;;;0.50;;
50128;SDS011;36026;45.478;9.224;2023-08-08T05:00:42;0.75;;;0.43;;
50128;SDS011;36026;45.478;9.224;2023-08-08T05:03:43;0.93;;;0.40;;
50128;SDS011;36026;45.478;9.224;2023-08-08T05:06:45;1.70;;;0.80;;
50128;SDS011;36026;45.478;9.224;2023-08-08T05:09:46;1.95;;;0.55;;
50128;SDS011;36026;45.478;9.224;2023-08-08T05:12:48;1.45;;;0.50;;
50128;SDS011;36026;45.478;9.224;2023-08-08T05:15:51;3.28;;;0.80;;
50128;SDS011;36026;45.478;9.224;2023-08-08T05:18:52;1.38;;;0.60;;
50128;SDS011;36026;45.478;9.224;2023-08-08T05:21:54;1.75;;;0.60;;
50128;SDS011;36026;45.478;9.224;2023-08-08T05:25:15;1.08;;;0.52;;
50128;SDS011;36026;45.478;9.224;2023-08-08T05:28:17;2.58;;;0.52;;
50128;SDS011;36026;45.478;9.224;2023-08-08T05:31:20;1.67;;;0.45;;
50128;SDS011;36026;45.478;9.224;2023-08-08T05:34:39;3.65;;;0.70;;
50128;SDS011;36026;45.478;9.224;2023-08-08T05:37:40;2.22;;;0.73;;
50128;SDS011;36026;45.478;9.224;2023-08-08T05:44:04;1.15;;;0.60;;
50128;SDS011;36026;45.478;9.224;2023-08-08T05:47:07;2.10;;;0.60;;
50128;SDS011;36026;45.478;9.224;2023-08-08T05:50:29;2.28;;;0.40;;
50128;SDS011;36026;45.478;9.224;2023-08-08T05:53:31;2.40;;;0.50;;
50128;SDS011;36026;45.478;9.224;2023-08-08T05:56:35;2.50;;;0.70;;
50128;SDS011;36026;45.478;9.224;2023-08-08T06:06:35;0.57;;;0.43;;
50128;SDS011;36026;45.478;9.224;2023-08-08T06:09:36;2.10;;;0.60;;
50128;SDS011;36026;45.478;9.224;2023-08-08T06:12:38;3.22;;;0.65;;
50128;SDS011;36026;45.478;9.224;2023-08-08T06:15:40;0.98;;;0.43;;
50128;SDS011;36026;45.478;9.224;2023-08-08T06:18:41;3.13;;;0.70;;
50128;SDS011;36026;45.478;9.224;2023-08-08T06:21:45;3.58;;;0.52;;
50128;SDS011;36026;45.478;9.224;2023-08-08T06:53:50;2.35;;;1.02;;
50128;SDS011;36026;45.478;9.224;2023-08-08T06:56:52;4.15;;;0.68;;
50128;SDS011;36026;45.478;9.224;2023-08-08T06:59:54;2.42;;;0.88;;
50128;SDS011;36026;45.478;9.224;2023-08-08T07:02:56;2.35;;;0.82;;
50128;SDS011;36026;45.478;9.224;2023-08-08T07:05:59;1.70;;;1.08;;
50128;SDS011;36026;45.478;9.224;2023-08-08T07:09:02;2.35;;;1.13;;
50128;SDS011;36026;45.478;9.224;2023-08-08T07:12:04;1.40;;;0.85;;
50128;SDS011;36026;45.478;9.224;2023-08-08T07:15:06;1.92;;;1.05;;
50128;SDS011;36026;45.478;9.224;2023-08-08T07:18:08;2.30;;;1.00;;
50128;SDS011;36026;45.478;9.224;2023-08-08T07:21:10;1.65;;;1.02;;
50128;SDS011;36026;45.478;9.224;2023-08-08T07:24:13;8.85;;;1.15;;
50128;SDS011;36026;45.478;9.224;2023-08-08T07:27:14;1.80;;;1.20;;
50128;SDS011;36026;45.478;9.224;2023-08-08T07:30:15;2.42;;;0.90;;
50128;SDS011;36026;45.478;9.224;2023-08-08T07:33:17;4.03;;;1.00;;
50128;SDS011;36026;45.478;9.224;2023-08-08T07:36:19;6.38;;;1.20;;
50128;SDS011;36026;45.478;9.224;2023-08-08T07:39:21;4.20;;;1.23;;
50128;SDS011;36026;45.478;9.224;2023-08-08T07:42:23;2.58;;;1.25;;
50128;SDS011;36026;45.478;9.224;2023-08-08T07:45:24;1.20;;;0.80;;
50128;SDS011;36026;45.478;9.224;2023-08-08T07:48:26;5.70;;;1.30;;
50128;SDS011;36026;45.478;9.224;2023-08-08T07:51:27;2.15;;;0.75;;
50128;SDS011;36026;45.478;9.224;2023-08-08T07:54:30;4.28;;;1.50;;
50128;SDS011;36026;45.478;9.224;2023-08-08T07:57:32;1.77;;;1.27;;
50128;SDS011;36026;45.478;9.224;2023-08-08T08:00:34;1.90;;;1.17;;
50128;SDS011;36026;45.478;9.224;2023-08-08T08:03:38;1.92;;;1.10;;
50128;SDS011;36026;45.478;9.224;2023-08-08T08:06:39;3.97;;;2.10;;
50128;SDS011;36026;45.478;9.224;2023-08-08T08:09:42;3.22;;;1.27;;
50128;SDS011;36026;45.478;9.224;2023-08-08T08:12:45;2.35;;;1.30;;
50128;SDS011;36026;45.478;9.224;2023-08-08T08:15:46;4.13;;;1.13;;
50128;SDS011;36026;45.478;9.224;2023-08-08T08:18:48;3.17;;;1.90;;
50128;SDS011;36026;45.478;9.224;2023-08-08T08:21:49;4.70;;;1.17;;
50128;SDS011;36026;45.478;9.224;2023-08-08T08:24:52;3.65;;;1.20;;
50128;SDS011;36026;45.478;9.224;2023-08-08T08:27:53;3.92;;;1.50;;
50128;SDS011;36026;45.478;9.224;2023-08-08T08:30:55;3.55;;;1.33;;
50128;SDS011;36026;45.478;9.224;2023-08-08T08:33:56;3.80;;;1.77;;
50128;SDS011;36026;45.478;9.224;2023-08-08T08:36:58;2.72;;;1.27;;
50128;SDS011;36026;45.478;9.224;2023-08-08T08:40:01;2.72;;;1.10;;
50128;SDS011;36026;45.478;9.224;2023-08-08T08:43:04;3.95;;;1.30;;
50128;SDS011;36026;45.478;9.224;2023-08-08T08:46:06;2.95;;;0.95;;
50128;SDS011;36026;45.478;9.224;2023-08-08T08:49:10;3.83;;;1.40;;
50128;SDS011;36026;45.478;9.224;2023-08-08T08:52:12;3.65;;;1.40;;
50128;SDS011;36026;45.478;9.224;2023-08-08T08:55:15;1.73;;;1.10;;
50128;SDS011;36026;45.478;9.224;2023-08-08T08:58:17;2.40;;;1.20;;
50128;SDS011;36026;45.478;9.224;2023-08-08T09:01:19;1.40;;;0.90;;
50128;SDS011;36026;45.478;9.224;2023-08-08T09:04:21;2.43;;;0.97;;
50128;SDS011;36026;45.478;9.224;2023-08-08T09:07:23;1.20;;;0.80;;
50128;SDS011;36026;45.478;9.224;2023-08-08T09:10:29;1.92;;;1.00;;
50128;SDS011;36026;45.478;9.224;2023-08-08T09:13:36;5.22;;;1.10;;
50128;SDS011;36026;45.478;9.224;2023-08-08T09:16:43;3.25;;;0.60;;
50128;SDS011;36026;45.478;9.224;2023-08-08T09:19:45;2.20;;;0.70;;
50128;SDS011;36026;45.478;9.224;2023-08-08T09:22:47;1.60;;;0.85;;
50128;SDS011;36026;45.478;9.224;2023-08-08T09:25:52;1.23;;;0.63;;
50128;SDS011;36026;45.478;9.224;2023-08-08T09:32:08;1.02;;;0.60;;
50128;SDS011;36026;45.478;9.224;2023-08-08T09:38:46;0.98;;;0.50;;
50128;SDS011;36026;45.478;9.224;2023-08-08T09:41:49;0.68;;;0.55;;
50128;SDS011;36026;45.478;9.224;2023-08-08T09:45:08;2.13;;;0.40;;
50128;SDS011;36026;45.478;9.224;2023-08-08T09:48:10;0.77;;;0.50;;
50128;SDS011;36026;45.478;9.224;2023-08-08T09:51:12;0.75;;;0.40;;
50128;SDS011;36026;45.478;9.224;2023-08-08T09:54:13;0.45;;;0.40;;
50128;SDS011;36026;45.478;9.224;2023-08-08T09:57:16;0.70;;;0.43;;
50128;SDS011;36026;45.478;9.224;2023-08-08T10:00:18;1.15;;;0.60;;
50128;SDS011;36026;45.478;9.224;2023-08-08T10:03:21;1.98;;;0.50;;
50128;SDS011;36026;45.478;9.224;2023-08-08T10:06:22;0.88;;;0.57;;
50128;SDS011;36026;45.478;9.224;2023-08-08T10:09:24;0.95;;;0.50;;
50128;SDS011;36026;45.478;9.224;2023-08-08T10:12:27;2.25;;;0.70;;
50128;SDS011;36026;45.478;9.224;2023-08-08T10:15:28;1.70;;;0.70;;
50128;SDS011;36026;45.478;9.224;2023-08-08T10:18:30;1.27;;;0.70;;
50128;SDS011;36026;45.478;9.224;2023-08-08T10:21:32;2.20;;;0.70;;
50128;SDS011;36026;45.478;9.224;2023-08-08T10:24:34;2.38;;;0.90;;
50128;SDS011;36026;45.478;9.224;2023-08-08T10:27:37;2.13;;;1.00;;
50128;SDS011;36026;45.478;9.224;2023-08-08T10:30:44;2.72;;;1.15;;
50128;SDS011;36026;45.478;9.224;2023-08-08T10:33:45;1.92;;;1.27;;
50128;SDS011;36026;45.478;9.224;2023-08-08T10:36:50;2.00;;;1.60;;
50128;SDS011;36026;45.478;9.224;2023-08-08T10:39:52;2.50;;;1.60;;
50128;SDS011;36026;45.478;9.224;2023-08-08T10:42:55;2.00;;;1.42;;
50128;SDS011;36026;45.478;9.224;2023-08-08T10:45:57;5.07;;;1.63;;
50128;SDS011;36026;45.478;9.224;2023-08-08T10:48:59;2.88;;;1.45;;
50128;SDS011;36026;45.478;9.224;2023-08-08T10:55:03;6.18;;;1.83;;
50128;SDS011;36026;45.478;9.224;2023-08-08T10:58:07;2.78;;;1.50;;
50128;SDS011;36026;45.478;9.224;2023-08-08T11:01:09;4.10;;;1.60;;
50128;SDS011;36026;45.478;9.224;2023-08-08T11:04:12;4.32;;;2.10;;
50128;SDS011;36026;45.478;9.224;2023-08-08T11:07:14;2.80;;;1.80;;
50128;SDS011;36026;45.478;9.224;2023-08-08T11:10:16;2.30;;;1.70;;
50128;SDS011;36026;45.478;9.224;2023-08-08T11:13:19;2.88;;;1.90;;
50128;SDS011;36026;45.478;9.224;2023-08-08T11:16:20;6.07;;;2.00;;
50128;SDS011;36026;45.478;9.224;2023-08-08T11:19:22;2.28;;;1.75;;
50128;SDS011;36026;45.478;9.224;2023-08-08T11:22:24;3.10;;;2.28;;
50128;SDS011;36026;45.478;9.224;2023-08-08T11:25:26;3.08;;;1.95;;
50128;SDS011;36026;45.478;9.224;2023-08-08T11:28:29;2.80;;;2.22;;
50128;SDS011;36026;45.478;9.224;2023-08-08T11:31:31;2.33;;;1.90;;
50128;SDS011;36026;45.478;9.224;2023-08-08T11:34:33;3.92;;;2.08;;
50128;SDS011;36026;45.478;9.224;2023-08-08T11:37:37;4.18;;;2.50;;
50128;SDS011;36026;45.478;9.224;2023-08-08T11:40:39;2.60;;;1.73;;
50128;SDS011;36026;45.478;9.224;2023-08-08T11:43:47;2.55;;;2.00;;
50128;SDS011;36026;45.478;9.224;2023-08-08T11:46:49;5.32;;;2.20;;
50128;SDS011;36026;45.478;9.224;2023-08-08T11:49:51;3.00;;;2.00;;
50128;SDS011;36026;45.478;9.224;2023-08-08T11:55:54;3.00;;;2.25;;
50128;SDS011;36026;45.478;9.224;2023-08-08T11:58:59;5.97;;;2.10;;
50128;SDS011;36026;45.478;9.224;2023-08-08T12:02:02;2.85;;;1.90;;
50128;SDS011;36026;45.478;9.224;2023-08-08T12:05:06;4.97;;;1.85;;
50128;SDS011;36026;45.478;9.224;2023-08-08T12:08:11;4.60;;;2.20;;
50128;SDS011;36026;45.478;9.224;2023-08-08T12:11:13;2.40;;;1.83;;
50128;SDS011;36026;45.478;9.224;2023-08-08T12:14:18;4.38;;;1.67;;
50128;SDS011;36026;45.478;9.224;2023-08-08T12:17:23;2.80;;;1.98;;
50128;SDS011;36026;45.478;9.224;2023-08-08T12:20:26;2.70;;;2.10;;
50128;SDS011;36026;45.478;9.224;2023-08-08T12:23:28;2.65;;;1.88;;
50128;SDS011;36026;45.478;9.224;2023-08-08T12:26:31;3.70;;;2.00;;
50128;SDS011;36026;45.478;9.224;2023-08-08T12:29:34;2.45;;;1.65;;
50128;SDS011;36026;45.478;9.224;2023-08-08T12:32:36;3.30;;;1.92;;
50128;SDS011;36026;45.478;9.224;2023-08-08T12:35:38;3.97;;;1.67;;
50128;SDS011;36026;45.478;9.224;2023-08-08T12:38:40;2.75;;;1.48;;
50128;SDS011;36026;45.478;9.224;2023-08-08T12:41:45;2.92;;;1.77;;
50128;SDS011;36026;45.478;9.224;2023-08-08T12:44:48;4.03;;;1.67;;
50128;SDS011;36026;45.478;9.224;2023-08-08T12:48:01;3.42;;;1.60;;
50128;SDS011;36026;45.478;9.224;2023-08-08T12:51:13;3.55;;;1.40;;
50128;SDS011;36026;45.478;9.224;2023-08-08T12:54:16;1.92;;;1.35;;
50128;SDS011;36026;45.478;9.224;2023-08-08T12:57:17;3.83;;;1.10;;
50128;SDS011;36026;45.478;9.224;2023-08-08T13:00:21;4.93;;;1.35;;
50128;SDS011;36026;45.478;9.224;2023-08-08T13:03:23;3.15;;;1.17;;
50128;SDS011;36026;45.478;9.224;2023-08-08T13:06:25;2.67;;;1.20;;
50128;SDS011;36026;45.478;9.224;2023-08-08T13:12:28;1.55;;;1.20;;
50128;SDS011;36026;45.478;9.224;2023-08-08T13:15:31;2.47;;;1.05;;
50128;SDS011;36026;45.478;9.224;2023-08-08T13:18:33;2.22;;;1.08;;
50128;SDS011;36026;45.478;9.224;2023-08-08T13:21:40;2.67;;;1.00;;
50128;SDS011;36026;45.478;9.224;2023-08-08T13:24:41;2.95;;;1.02;;
50128;SDS011;36026;45.478;9.224;2023-08-08T13:27:43;1.80;;;0.70;;
50128;SDS011;36026;45.478;9.224;2023-08-08T13:30:46;3.05;;;0.90;;
50128;SDS011;36026;45.478;9.224;2023-08-08T13:33:47;1.88;;;0.93;;
50128;SDS011;36026;45.478;9.224;2023-08-08T13:36:58;1.88;;;1.20;;
50128;SDS011;36026;45.478;9.224;2023-08-08T13:40:00;1.15;;;0.90;;
50128;SDS011;36026;45.478;9.224;2023-08-08T13:43:01;1.73;;;0.80;;
50128;SDS011;36026;45.478;9.224;2023-08-08T13:49:09;1.58;;;1.02;;
50128;SDS011;36026;45.478;9.224;2023-08-08T13:52:10;3.25;;;0.93;;
50128;SDS011;36026;45.478;9.224;2023-08-08T13:55:15;1.25;;;0.90;;
50128;SDS011;36026;45.478;9.224;2023-08-08T13:58:16;1.60;;;0.95;;
50128;SDS011;36026;45.478;9.224;2023-08-08T14:01:19;1.45;;;0.93;;
50128;SDS011;36026;45.478;9.224;2023-08-08T14:04:22;3.35;;;1.20;;
50128;SDS011;36026;45.478;9.224;2023-08-08T14:07:23;3.90;;;1.25;;
50128;SDS011;36026;45.478;9.224;2023-08-08T14:13:26;1.88;;;1.08;;
50128;SDS011;36026;45.478;9.224;2023-08-08T14:19:31;1.57;;;1.00;;
50128;SDS011;36026;45.478;9.224;2023-08-08T14:22:33;2.55;;;0.80;;
50128;SDS011;36026;45.478;9.224;2023-08-08T14:25:35;3.10;;;1.05;;
50128;SDS011;36026;45.478;9.224;2023-08-08T14:28:37;0.80;;;0.70;;
50128;SDS011;36026;45.478;9.224;2023-08-08T14:37:54;1.15;;;0.70;;
50128;SDS011;36026;45.478;9.224;2023-08-08T14:40:56;2.60;;;0.93;;
50128;SDS011;36026;45.478;9.224;2023-08-08T14:43:57;2.63;;;1.20;;
50128;SDS011;36026;45.478;9.224;2023-08-08T14:46:59;2.20;;;1.10;;
50128;SDS011;36026;45.478;9.224;2023-08-08T14:50:00;1.35;;;0.90;;
50128;SDS011;36026;45.478;9.224;2023-08-08T14:53:03;3.75;;;1.00;;
50128;SDS011;36026;45.478;9.224;2023-08-08T14:56:05;1.67;;;0.85;;
50128;SDS011;36026;45.478;9.224;2023-08-08T14:59:08;1.58;;;0.80;;
50128;SDS011;36026;45.478;9.224;2023-08-08T15:02:10;1.45;;;0.80;;
50128;SDS011;36026;45.478;9.224;2023-08-08T15:05:11;1.70;;;0.90;;
50128;SDS011;36026;45.478;9.224;2023-08-08T15:08:14;1.45;;;0.95;;
50128;SDS011;36026;45.478;9.224;2023-08-08T15:11:16;1.77;;;0.68;;
50128;SDS011;36026;45.478;9.224;2023-08-08T15:17:18;3.73;;;0.90;;
50128;SDS011;36026;45.478;9.224;2023-08-08T15:23:23;2.20;;;0.80;;
50128;SDS011;36026;45.478;9.224;2023-08-08T15:26:24;1.73;;;0.82;;
50128;SDS011;36026;45.478;9.224;2023-08-08T15:29:26;1.10;;;0.65;;
50128;SDS011;36026;45.478;9.224;2023-08-08T15:32:27;1.77;;;0.88;;
50128;SDS011;36026;45.478;9.224;2023-08-08T15:35:29;1.58;;;0.60;;
50128;SDS011;36026;45.478;9.224;2023-08-08T15:38:32;1.30;;;0.85;;
50128;SDS011;36026;45.478;9.224;2023-08-08T15:41:33;1.65;;;0.93;;
50128;SDS011;36026;45.478;9.224;2023-08-08T15:44:36;1.50;;;0.60;;
50128;SDS011;36026;45.478;9.224;2023-08-08T15:47:37;1.83;;;0.80;;
50128;SDS011;36026;45.478;9.224;2023-08-08T15:50:39;2.75;;;0.70;;
50128;SDS011;36026;45.478;9.224;2023-08-08T15:53:42;2.88;;;0.80;;
50128;SDS011;36026;45.478;9.224;2023-08-08T15:56:43;2.33;;;0.77;;
50128;SDS011;36026;45.478;9.224;2023-08-08T15:59:46;1.83;;;0.90;;
50128;SDS011;36026;45.478;9.224;2023-08-08T16:02:47;1.10;;;0.60;;
50128;SDS011;36026;45.478;9.224;2023-08-08T16:05:49;3.78;;;1.00;;
50128;SDS011;36026;45.478;9.224;2023-08-08T16:08:52;1.85;;;0.90;;
50128;SDS011;36026;45.478;9.224;2023-08-08T16:11:54;1.63;;;0.88;;
50128;SDS011;36026;45.478;9.224;2023-08-08T16:14:55;2.38;;;0.80;;
50128;SDS011;36026;45.478;9.224;2023-08-08T16:17:57;4.93;;;1.02;;
50128;SDS011;36026;45.478;9.224;2023-08-08T16:20:58;3.35;;;0.68;;
50128;SDS011;36026;45.478;9.224;2023-08-08T16:24:01;2.78;;;0.98;;
50128;SDS011;36026;45.478;9.224;2023-08-08T16:27:12;1.50;;;0.60;;
50128;SDS011;36026;45.478;9.224;2023-08-08T16:30:14;0.82;;;0.63;;
50128;SDS011;36026;45.478;9.224;2023-08-08T16:33:15;1.70;;;1.00;;
50128;SDS011;36026;45.478;9.224;2023-08-08T16:36:18;0.98;;;0.60;;
50128;SDS011;36026;45.478;9.224;2023-08-08T16:39:21;2.03;;;0.93;;
50128;SDS011;36026;45.478;9.224;2023-08-08T16:42:22;2.10;;;0.85;;
50128;SDS011;36026;45.478;9.224;2023-08-08T16:45:24;1.77;;;0.93;;
50128;SDS011;36026;45.478;9.224;2023-08-08T16:48:26;1.10;;;0.68;;
50128;SDS011;36026;45.478;9.224;2023-08-08T16:51:41;1.67;;;0.73;;
50128;SDS011;36026;45.478;9.224;2023-08-08T16:54:44;2.50;;;0.82;;
50128;SDS011;36026;45.478;9.224;2023-08-08T17:00:47;1.15;;;0.85;;
50128;SDS011;36026;45.478;9.224;2023-08-08T17:04:06;2.95;;;0.70;;
50128;SDS011;36026;45.478;9.224;2023-08-08T17:07:08;2.33;;;1.08;;
50128;SDS011;36026;45.478;9.224;2023-08-08T17:10:11;2.85;;;0.85;;
50128;SDS011;36026;45.478;9.224;2023-08-08T17:13:12;2.53;;;0.75;;
50128;SDS011;36026;45.478;9.224;2023-08-08T17:16:14;3.00;;;0.65;;
50128;SDS011;36026;45.478;9.224;2023-08-08T17:19:17;1.85;;;0.95;;
50128;SDS011;36026;45.478;9.224;2023-08-08T17:22:18;1.65;;;0.82;;
50128;SDS011;36026;45.478;9.224;2023-08-08T17:25:21;2.25;;;0.80;;
50128;SDS011;36026;45.478;9.224;2023-08-08T17:28:23;3.30;;;0.98;;
50128;SDS011;36026;45.478;9.224;2023-08-08T17:31:25;3.30;;;0.90;;
50128;SDS011;36026;45.478;9.224;2023-08-08T17:34:26;2.53;;;1.00;;
50128;SDS011;36026;45.478;9.224;2023-08-08T17:37:28;1.25;;;0.63;;
50128;SDS011;36026;45.478;9.224;2023-08-08T17:40:30;2.35;;;0.82;;
50128;SDS011;36026;45.478;9.224;2023-08-08T17:43:32;2.85;;;0.93;;
50128;SDS011;36026;45.478;9.224;2023-08-08T17:46:33;2.92;;;0.93;;
50128;SDS011;36026;45.478;9.224;2023-08-08T17:49:35;1.98;;;0.90;;
50128;SDS011;36026;45.478;9.224;2023-08-08T17:52:36;2.42;;;0.93;;
50128;SDS011;36026;45.478;9.224;2023-08-08T17:59:08;2.67;;;1.00;;
50128;SDS011;36026;45.478;9.224;2023-08-08T18:02:10;2.05;;;0.80;;
50128;SDS011;36026;45.478;9.224;2023-08-08T18:05:11;3.92;;;0.98;;
50128;SDS011;36026;45.478;9.224;2023-08-08T18:08:13;3.22;;;0.90;;
50128;SDS011;36026;45.478;9.224;2023-08-08T18:11:16;3.97;;;0.80;;
50128;SDS011;36026;45.478;9.224;2023-08-08T18:14:19;2.42;;;0.70;;
50128;SDS011;36026;45.478;9.224;2023-08-08T18:17:27;4.03;;;0.88;;
50128;SDS011;36026;45.478;9.224;2023-08-08T18:20:36;2.10;;;0.90;;
50128;SDS011;36026;45.478;9.224;2023-08-08T18:23:37;4.53;;;0.95;;
50128;SDS011;36026;45.478;9.224;2023-08-08T18:26:39;1.58;;;1.13;;
50128;SDS011;36026;45.478;9.224;2023-08-08T18:29:48;1.58;;;1.08;;
50128;SDS011;36026;45.478;9.224;2023-08-08T18:32:50;2.40;;;0.95;;
50128;SDS011;36026;45.478;9.224;2023-08-08T18:35:51;3.00;;;0.90;;
50128;SDS011;36026;45.478;9.224;2023-08-08T18:38:53;1.67;;;0.90;;
50128;SDS011;36026;45.478;9.224;2023-08-08T18:41:54;4.70;;;1.10;;
50128;SDS011;36026;45.478;9.224;2023-08-08T18:44:57;2.85;;;0.90;;
50128;SDS011;36026;45.478;9.224;2023-08-08T18:47:59;2.58;;;1.08;;
50128;SDS011;36026;45.478;9.224;2023-08-08T18:51:00;2.47;;;0.93;;
50128;SDS011;36026;45.478;9.224;2023-08-08T18:54:02;1.30;;;0.82;;
50128;SDS011;36026;45.478;9.224;2023-08-08T18:57:05;1.40;;;0.90;;
50128;SDS011;36026;45.478;9.224;2023-08-08T19:00:08;3.15;;;0.80;;
50128;SDS011;36026;45.478;9.224;2023-08-08T19:03:10;5.47;;;1.10;;
50128;SDS011;36026;45.478;9.224;2023-08-08T19:06:12;2.90;;;1.08;;
50128;SDS011;36026;45.478;9.224;2023-08-08T19:09:14;1.23;;;0.80;;
50128;SDS011;36026;45.478;9.224;2023-08-08T19:12:19;2.33;;;0.88;;
50128;SDS011;36026;45.478;9.224;2023-08-08T19:15:36;5.13;;;0.93;;
50128;SDS011;36026;45.478;9.224;2023-08-08T19:18:38;4.35;;;1.20;;
50128;SDS011;36026;45.478;9.224;2023-08-08T19:21:40;4.45;;;0.90;;
50128;SDS011;36026;45.478;9.224;2023-08-08T19:24:42;3.67;;;1.20;;
50128;SDS011;36026;45.478;9.224;2023-08-08T19:27:44;2.25;;;0.70;;
50128;SDS011;36026;45.478;9.224;2023-08-08T19:30:50;1.40;;;0.85;;
50128;SDS011;36026;45.478;9.224;2023-08-08T19:33:52;3.25;;;1.02;;
50128;SDS011;36026;45.478;9.224;2023-08-08T19:36:54;2.10;;;0.97;;
50128;SDS011;36026;45.478;9.224;2023-08-08T19:39:56;2.17;;;1.10;;
50128;SDS011;36026;45.478;9.224;2023-08-08T19:42:58;6.35;;;1.50;;
50128;SDS011;36026;45.478;9.224;2023-08-08T19:46:03;5.80;;;1.30;;
50128;SDS011;36026;45.478;9.224;2023-08-08T19:52:29;1.95;;;1.20;;
50128;SDS011;36026;45.478;9.224;2023-08-08T19:55:31;2.85;;;1.00;;
50128;SDS011;36026;45.478;9.224;2023-08-08T19:58:33;3.47;;;1.23;;